Strona główna
METAR-TAF:

METAR-TAF

Lotnisko :

Yeovilton, Anglia

Szerokość geograficzna: 51-00N, Długość geograficzna: 002-38W, wysokość: 23 m

Aktualna obserwacja pogody

Raport powstał 36 minut temu, godzina 01:50 UTC
Wiatr 15 kt od południowy zachód w porywach dochodzący do 25 kt
Temperatura 7°C
Wilgotność 61%
Ciśnienie 1006 hPa
Widzialność 10 km lub więcej

METAR: EGDY 170150Z AUTO 23015G25KT 9999 NCD 07/00 Q1006

czas: 02:26 (02:26 UTC)


TAF: brakujący

Obserwacja i prognoza pogody dla ponad 4000 lotnisk (raport METAR i TAF).

Dostępne stacje oznaczono żółtymi i czerwonymi punktami na mapie.

Najedź kursorem aby zobaczyć nazwę stacji.

Kliknij aby zobaczyć obserwacje i prognozy pogody.

Aby zmienić mapę: kliknij na zielony przycisk z czarnym krzyżykiem, aby powiększyć; na zielony przycisk z myślnikiem, aby pomniejszyć; na zielone strzałki, aby przejść do map sąsiednich.


METAR-TAF: